createdAt,value
2023-04-26T00:00:56.945Z,1.52
2023-04-26T00:03:25.752Z,1.46
2023-04-26T00:05:54.878Z,1.56
2023-04-26T00:08:23.032Z,1.65
2023-04-26T00:10:51.143Z,1.84
2023-04-26T00:13:19.022Z,2.02
2023-04-26T00:15:50.413Z,2.12
2023-04-26T00:18:18.498Z,2.13
2023-04-26T00:20:46.444Z,2.22
2023-04-26T00:23:14.672Z,2.40
2023-04-26T00:25:43.039Z,2.41
2023-04-26T00:28:10.938Z,2.30
2023-04-26T00:30:42.302Z,2.01
2023-04-26T00:33:11.533Z,2.10
2023-04-26T00:35:39.480Z,1.94
2023-04-26T00:38:07.760Z,1.87
2023-04-26T00:40:36.297Z,1.77
2023-04-26T00:43:10.102Z,1.77
2023-04-26T00:45:38.988Z,1.69
2023-04-26T00:48:07.310Z,1.40
2023-04-26T00:50:36.989Z,1.37
2023-04-26T00:53:06.359Z,1.33
2023-04-26T00:55:35.372Z,1.18
2023-04-26T00:58:03.852Z,1.41
2023-04-26T01:00:31.927Z,1.14
2023-04-26T01:03:00.086Z,1.01
2023-04-26T01:05:28.054Z,1.12
2023-04-26T01:07:57.791Z,1.10
2023-04-26T01:10:26.444Z,0.73
2023-04-26T01:12:57.925Z,0.72
2023-04-26T01:15:28.053Z,0.67
2023-04-26T01:17:56.624Z,0.72
2023-04-26T01:20:26.121Z,0.92
2023-04-26T01:22:55.979Z,0.72
2023-04-26T01:25:26.470Z,0.66
2023-04-26T01:27:54.354Z,0.75
2023-04-26T01:30:22.469Z,0.82
2023-04-26T01:32:50.605Z,0.94
2023-04-26T01:35:18.931Z,0.74
2023-04-26T01:37:46.842Z,0.88
2023-04-26T01:40:16.590Z,0.86
2023-04-26T01:42:44.664Z,0.87
2023-04-26T01:45:12.982Z,1.01
2023-04-26T01:47:42.917Z,1.08
2023-04-26T01:50:11.774Z,0.95
2023-04-26T01:52:41.161Z,1.00
2023-04-26T01:55:10.077Z,1.10
2023-04-26T01:57:39.745Z,1.32
2023-04-26T02:00:09.431Z,1.33
2023-04-26T02:02:40.927Z,1.46
2023-04-26T02:05:12.474Z,1.56
2023-04-26T02:07:40.457Z,1.61
2023-04-26T02:10:10.026Z,1.48
2023-04-26T02:12:39.594Z,1.44
2023-04-26T02:15:09.691Z,1.54
2023-04-26T02:17:37.834Z,1.43
2023-04-26T02:20:08.314Z,1.46
2023-04-26T02:22:38.568Z,1.38
2023-04-26T02:25:09.668Z,1.28
2023-04-26T02:27:40.104Z,1.32
2023-04-26T02:30:10.730Z,1.27
2023-04-26T02:32:40.015Z,1.51
2023-04-26T02:35:09.539Z,1.22
2023-04-26T02:37:38.426Z,1.25
2023-04-26T02:40:10.508Z,1.70
2023-04-26T02:42:39.855Z,1.49
2023-04-26T02:45:09.056Z,1.54
2023-04-26T02:47:39.872Z,1.51
2023-04-26T02:50:10.480Z,1.52
2023-04-26T02:52:39.661Z,1.47
2023-04-26T02:55:09.539Z,1.37
2023-04-26T02:57:39.806Z,1.36
2023-04-26T03:00:09.164Z,1.29
2023-04-26T03:02:38.683Z,1.31
2023-04-26T03:05:07.020Z,1.48
2023-04-26T03:07:34.888Z,1.60
2023-04-26T03:10:05.340Z,1.58
2023-04-26T03:12:33.642Z,1.63
2023-04-26T03:15:04.128Z,1.58
2023-04-26T03:17:32.425Z,1.49
2023-04-26T03:20:01.939Z,1.25
2023-04-26T03:22:30.743Z,1.23
2023-04-26T03:24:58.592Z,0.97
2023-04-26T03:27:26.541Z,0.84
2023-04-26T03:29:54.607Z,0.76
2023-04-26T03:32:24.053Z,0.66
2023-04-26T03:34:52.303Z,0.90
2023-04-26T03:37:20.126Z,1.06
2023-04-26T03:39:48.078Z,0.99
2023-04-26T03:42:16.173Z,1.24
2023-04-26T03:44:44.080Z,1.48
2023-04-26T03:47:15.784Z,1.60
2023-04-26T03:49:48.016Z,1.73
2023-04-26T03:52:33.264Z,1.86
2023-04-26T03:55:01.439Z,2.00
2023-04-26T03:57:56.298Z,2.12
2023-04-26T04:00:24.600Z,2.17
2023-04-26T04:02:57.874Z,2.34
2023-04-26T04:05:34.643Z,2.22
2023-04-26T04:08:03.106Z,2.29
2023-04-26T04:10:35.121Z,2.24
2023-04-26T04:13:11.499Z,2.13
2023-04-26T04:15:41.143Z,2.05
2023-04-26T04:18:09.232Z,1.95
2023-04-26T04:20:42.178Z,1.92
2023-04-26T04:23:10.873Z,1.74
2023-04-26T04:25:42.065Z,1.81
2023-04-26T04:28:11.253Z,1.68
2023-04-26T04:30:39.266Z,1.77
2023-04-26T04:33:10.433Z,1.60
2023-04-26T04:35:42.007Z,1.51
2023-04-26T04:38:09.975Z,1.60
2023-04-26T04:40:39.845Z,1.56
2023-04-26T04:43:09.100Z,1.57
2023-04-26T04:45:37.322Z,1.43
2023-04-26T04:48:09.272Z,1.55
2023-04-26T04:50:38.688Z,1.44
2023-04-26T04:53:09.063Z,1.43
2023-04-26T04:55:39.636Z,1.44
2023-04-26T04:58:07.806Z,1.67
2023-04-26T05:00:38.088Z,1.86
2023-04-26T05:03:08.612Z,1.93
2023-04-26T05:05:37.372Z,2.04
2023-04-26T05:08:07.874Z,2.17
2023-04-26T05:10:36.324Z,2.13
2023-04-26T05:13:06.650Z,1.97
2023-04-26T05:15:34.561Z,2.03
2023-04-26T05:18:02.477Z,1.95
2023-04-26T05:20:31.262Z,1.77
2023-04-26T05:22:59.168Z,1.90
2023-04-26T05:25:28.510Z,1.90
2023-04-26T05:27:56.835Z,1.82
2023-04-26T05:30:25.349Z,1.95
2023-04-26T05:32:53.588Z,1.95
2023-04-26T05:35:21.904Z,2.15
2023-04-26T05:37:49.871Z,2.30
2023-04-26T05:40:17.879Z,2.63
2023-04-26T05:42:47.184Z,2.61
2023-04-26T05:45:15.562Z,2.54
2023-04-26T05:47:43.716Z,2.61
2023-04-26T05:50:12.197Z,2.78
2023-04-26T05:52:40.136Z,3.14
2023-04-26T05:55:09.267Z,3.73
2023-04-26T05:57:37.430Z,4.59
2023-04-26T06:00:09.687Z,5.12
2023-04-26T06:02:38.031Z,5.24
2023-04-26T06:05:07.607Z,5.50
2023-04-26T06:07:36.186Z,5.27
2023-04-26T06:10:04.494Z,5.51
2023-04-26T06:12:33.037Z,5.15
2023-04-26T06:15:01.486Z,5.01
2023-04-26T06:17:31.113Z,4.89
2023-04-26T06:19:59.165Z,4.97
2023-04-26T06:22:29.227Z,5.00
2023-04-26T06:24:57.267Z,5.07
2023-04-26T06:27:25.239Z,5.04
2023-04-26T06:29:53.582Z,5.10
2023-04-26T06:32:21.802Z,5.13
2023-04-26T06:34:51.573Z,5.07
2023-04-26T06:37:19.483Z,5.26
2023-04-26T06:39:47.426Z,5.47
2023-04-26T06:42:15.475Z,5.40
2023-04-26T06:44:43.464Z,5.43
2023-04-26T06:47:11.369Z,5.93
2023-04-26T06:49:39.720Z,6.15
2023-04-26T06:52:11.978Z,6.19
2023-04-26T06:54:42.892Z,6.22
2023-04-26T06:57:18.934Z,6.16
2023-04-26T06:59:47.297Z,6.17
2023-04-26T07:02:15.955Z,6.27
2023-04-26T07:04:44.579Z,6.38
2023-04-26T07:07:17.149Z,6.30
2023-04-26T07:09:45.319Z,6.48
2023-04-26T07:12:13.579Z,7.22
2023-04-26T07:14:43.333Z,7.41
2023-04-26T07:17:11.716Z,8.28
2023-04-26T07:19:39.780Z,7.69
2023-04-26T07:22:10.005Z,8.26
2023-04-26T07:24:39.661Z,8.54
2023-04-26T07:27:10.681Z,8.43
2023-04-26T07:29:43.874Z,8.84
2023-04-26T07:32:11.987Z,9.08
2023-04-26T07:34:39.977Z,9.01
2023-04-26T07:37:08.216Z,9.58
2023-04-26T07:39:50.740Z,10.33
2023-04-26T07:42:18.792Z,10.12
2023-04-26T07:44:49.168Z,10.35
2023-04-26T07:47:39.205Z,9.34
2023-04-26T07:50:08.647Z,10.64
2023-04-26T07:52:41.138Z,9.98
2023-04-26T07:55:11.316Z,9.19
2023-04-26T07:57:41.829Z,8.96
2023-04-26T08:00:13.690Z,9.12
2023-04-26T08:02:44.633Z,9.09
2023-04-26T08:05:14.525Z,9.42
2023-04-26T08:07:42.984Z,9.03
2023-04-26T08:10:16.343Z,9.27
2023-04-26T08:12:49.581Z,9.07
2023-04-26T08:15:26.795Z,9.90
2023-04-26T08:17:55.140Z,11.25
2023-04-26T08:20:27.089Z,11.02
2023-04-26T08:27:23.243Z,10.70
2023-04-26T08:29:51.205Z,10.29
2023-04-26T08:32:21.489Z,9.86
2023-04-26T08:34:49.892Z,9.09
2023-04-26T08:37:21.550Z,9.24
2023-04-26T08:39:50.644Z,10.22
2023-04-26T08:42:25.653Z,9.58
2023-04-26T08:44:54.901Z,9.70
2023-04-26T08:47:28.684Z,10.41
2023-04-26T08:49:59.832Z,11.21
2023-04-26T08:52:30.063Z,10.34
2023-04-26T08:54:59.143Z,10.16
2023-04-26T08:57:28.843Z,11.12
2023-04-26T09:00:02.281Z,12.25
2023-04-26T09:02:31.500Z,11.62
2023-04-26T09:05:00.029Z,11.41
2023-04-26T09:07:32.835Z,12.74
2023-04-26T09:10:01.763Z,11.65
2023-04-26T09:12:46.378Z,11.25
2023-04-26T09:15:17.023Z,10.29
2023-04-26T09:17:46.063Z,9.72
2023-04-26T09:20:22.664Z,8.83
2023-04-26T09:22:54.051Z,8.75
2023-04-26T09:25:30.115Z,8.11
2023-04-26T09:28:03.784Z,7.66
2023-04-26T09:30:39.490Z,7.50
2023-04-26T09:33:09.737Z,7.65
2023-04-26T09:35:42.186Z,7.44
2023-04-26T09:38:15.783Z,7.16
2023-04-26T09:40:46.298Z,7.67
2023-04-26T09:43:17.653Z,7.86
2023-04-26T09:45:49.124Z,8.14
2023-04-26T09:48:20.724Z,8.38
2023-04-26T09:50:49.956Z,8.58
2023-04-26T09:53:29.206Z,8.68
2023-04-26T09:55:58.171Z,8.76
2023-04-26T09:58:27.895Z,8.85
2023-04-26T10:00:57.044Z,9.23
2023-04-26T10:03:27.273Z,9.11
2023-04-26T10:05:55.944Z,9.32
2023-04-26T10:08:24.348Z,9.08
2023-04-26T10:10:52.683Z,9.37
2023-04-26T10:13:20.890Z,9.07
2023-04-26T10:15:51.006Z,8.92
2023-04-26T10:18:18.969Z,9.53
2023-04-26T10:20:53.070Z,9.68
2023-04-26T10:23:30.339Z,8.75
2023-04-26T10:25:58.622Z,9.70
2023-04-26T10:29:02.215Z,10.21
2023-04-26T10:32:07.428Z,9.34
2023-04-26T10:34:39.319Z,9.23
2023-04-26T10:37:12.334Z,9.36
2023-04-26T10:39:43.923Z,9.22
2023-04-26T10:42:26.898Z,10.01
2023-04-26T10:44:55.767Z,9.45
2023-04-26T10:47:26.939Z,9.66
2023-04-26T10:50:05.723Z,9.71
2023-04-26T10:52:34.895Z,9.39
2023-04-26T10:55:03.548Z,9.84
2023-04-26T10:57:51.593Z,9.68
2023-04-26T11:00:32.714Z,10.14
2023-04-26T11:03:06.842Z,9.78
2023-04-26T11:05:54.212Z,10.39
2023-04-26T11:08:26.356Z,10.37
2023-04-26T11:11:00.570Z,10.90
2023-04-26T11:13:28.686Z,11.53
2023-04-26T11:16:03.338Z,10.67
2023-04-26T11:18:32.142Z,10.55
2023-04-26T11:21:01.790Z,12.16
2023-04-26T11:23:33.754Z,11.28
2023-04-26T11:26:03.858Z,11.53
2023-04-26T11:28:34.296Z,12.88
2023-04-26T11:31:04.318Z,11.93
2023-04-26T11:33:34.121Z,11.82
2023-04-26T11:36:03.950Z,12.24
2023-04-26T11:38:32.115Z,10.77
2023-04-26T11:41:01.586Z,9.82
2023-04-26T11:43:37.016Z,9.25
2023-04-26T11:46:10.132Z,8.84
2023-04-26T11:48:39.914Z,8.09
2023-04-26T11:51:11.926Z,8.12
2023-04-26T11:53:41.102Z,7.57
2023-04-26T11:56:18.725Z,7.49
2023-04-26T11:58:48.112Z,7.64
2023-04-26T12:01:23.282Z,7.81
2023-04-26T12:03:53.111Z,7.87
2023-04-26T12:06:30.196Z,8.12
2023-04-26T12:08:58.470Z,8.26
2023-04-26T12:11:27.455Z,8.41
2023-04-26T12:13:55.406Z,8.52
2023-04-26T12:16:26.891Z,9.04
2023-04-26T12:18:56.948Z,9.18
2023-04-26T12:21:30.434Z,8.93
2023-04-26T12:24:03.966Z,9.65
2023-04-26T12:26:48.890Z,10.23
2023-04-26T12:29:26.056Z,10.19
2023-04-26T12:32:04.115Z,10.17
2023-04-26T12:34:33.366Z,9.38
2023-04-26T12:37:05.378Z,8.99
2023-04-26T12:39:41.154Z,8.70
2023-04-26T12:42:41.247Z,8.28
2023-04-26T12:45:16.721Z,8.23
2023-04-26T12:47:44.870Z,7.98
2023-04-26T12:50:18.569Z,8.35
2023-04-26T12:52:51.570Z,8.37
2023-04-26T12:55:20.814Z,8.41
2023-04-26T12:57:48.994Z,8.67
2023-04-26T13:00:21.845Z,8.83
2023-04-26T13:02:50.197Z,8.36
2023-04-26T13:05:18.160Z,8.88
2023-04-26T13:07:46.064Z,8.95
2023-04-26T13:10:15.321Z,9.20
2023-04-26T13:12:43.447Z,9.35
2023-04-26T13:15:12.381Z,9.70
2023-04-26T13:17:43.028Z,9.87
2023-04-26T13:20:11.662Z,10.15
2023-04-26T13:22:42.378Z,9.98
2023-04-26T13:25:11.058Z,9.11
2023-04-26T13:27:42.820Z,9.91
2023-04-26T13:30:12.126Z,10.35
2023-04-26T13:32:40.989Z,10.07
2023-04-26T13:35:10.293Z,10.14
2023-04-26T13:37:39.213Z,10.21
2023-04-26T13:40:08.800Z,10.57
2023-04-26T13:42:36.770Z,10.36
2023-04-26T13:45:09.460Z,9.68
2023-04-26T13:47:37.977Z,9.98
2023-04-26T13:50:06.532Z,10.32
2023-04-26T13:52:34.464Z,10.58
2023-04-26T13:55:03.082Z,10.13
2023-04-26T13:57:31.470Z,10.16
2023-04-26T14:00:00.768Z,10.70
2023-04-26T14:02:30.298Z,10.48
2023-04-26T14:04:58.462Z,11.04
2023-04-26T14:07:27.630Z,10.81
2023-04-26T14:09:57.560Z,11.11
2023-04-26T14:12:29.061Z,10.73
2023-04-26T14:14:56.942Z,10.61
2023-04-26T14:17:32.448Z,10.25
2023-04-26T14:20:01.839Z,9.95
2023-04-26T14:22:29.764Z,9.64
2023-04-26T14:24:57.886Z,9.62
2023-04-26T14:27:30.619Z,9.10
2023-04-26T14:29:58.480Z,8.87
2023-04-26T14:32:27.120Z,8.69
2023-04-26T14:34:56.584Z,8.76
2023-04-26T14:37:24.479Z,8.61
2023-04-26T14:39:52.380Z,8.47
2023-04-26T14:42:20.433Z,8.50
2023-04-26T14:44:48.592Z,8.61
2023-04-26T14:47:16.519Z,8.68
2023-04-26T14:49:44.701Z,9.02
2023-04-26T14:52:14.402Z,9.66
2023-04-26T14:54:42.933Z,9.94
2023-04-26T14:57:10.945Z,9.71
2023-04-26T14:59:39.737Z,9.61
2023-04-26T15:02:08.092Z,9.74
2023-04-26T15:04:38.385Z,10.28
2023-04-26T15:07:06.791Z,10.22
2023-04-26T15:09:37.208Z,9.82
2023-04-26T15:12:06.106Z,10.22
2023-04-26T15:14:34.184Z,10.17
2023-04-26T15:17:02.403Z,10.39
2023-04-26T15:19:30.349Z,10.66
2023-04-26T15:22:01.047Z,10.89
2023-04-26T15:24:30.346Z,11.01
2023-04-26T15:27:01.653Z,11.49
2023-04-26T15:29:32.120Z,12.38
2023-04-26T15:32:00.210Z,12.96
2023-04-26T15:34:30.223Z,13.16
2023-04-26T15:37:00.665Z,13.96
2023-04-26T15:39:30.279Z,13.66
2023-04-26T15:41:59.933Z,13.97
2023-04-26T15:44:29.472Z,14.76
2023-04-26T15:46:57.308Z,13.23
2023-04-26T15:49:25.355Z,13.33
2023-04-26T15:51:55.315Z,12.56
2023-04-26T15:54:23.270Z,11.22
2023-04-26T15:56:51.830Z,10.62
2023-04-26T15:59:20.273Z,10.12
2023-04-26T16:01:49.767Z,10.14
2023-04-26T16:04:17.874Z,10.14
2023-04-26T16:06:46.079Z,8.98
2023-04-26T16:09:24.809Z,9.14
2023-04-26T16:11:53.662Z,8.62
2023-04-26T16:14:24.796Z,8.74
2023-04-26T16:16:54.397Z,8.38
2023-04-26T16:19:24.572Z,8.85
2023-04-26T16:21:52.533Z,10.33
2023-04-26T16:24:21.217Z,10.94
2023-04-26T16:26:52.612Z,10.53
2023-04-26T16:29:26.863Z,10.57
2023-04-26T16:31:56.212Z,10.47
2023-04-26T16:34:27.765Z,10.84
2023-04-26T16:36:55.869Z,10.84
2023-04-26T16:39:24.492Z,10.67
2023-04-26T16:41:57.509Z,10.47
2023-04-26T16:44:26.659Z,10.81
2023-04-26T16:46:56.077Z,10.59
2023-04-26T16:49:24.542Z,9.35
2023-04-26T16:52:26.517Z,10.13
2023-04-26T16:54:55.653Z,9.53
2023-04-26T16:57:45.103Z,9.42
2023-04-26T17:00:16.772Z,10.25
2023-04-26T17:02:48.278Z,10.84
2023-04-26T17:05:18.646Z,10.27
2023-04-26T17:07:50.763Z,9.77
2023-04-26T17:10:19.133Z,9.79
2023-04-26T17:12:47.518Z,9.25
2023-04-26T17:15:25.651Z,9.83
2023-04-26T17:17:55.311Z,9.68
2023-04-26T17:20:25.690Z,10.38
2023-04-26T17:22:53.849Z,10.60
2023-04-26T17:25:23.020Z,9.32
2023-04-26T17:27:51.528Z,8.67
2023-04-26T17:30:20.043Z,8.56
2023-04-26T17:32:50.533Z,8.26
2023-04-26T17:35:20.073Z,7.79
2023-04-26T17:37:50.243Z,7.95
2023-04-26T17:40:22.777Z,7.80
2023-04-26T17:42:50.739Z,7.65
2023-04-26T17:45:18.781Z,7.63
2023-04-26T17:47:46.892Z,7.58
2023-04-26T17:50:15.438Z,7.47
2023-04-26T17:52:45.254Z,7.40
2023-04-26T17:55:13.339Z,7.28
2023-04-26T17:57:42.377Z,7.17
2023-04-26T18:00:13.949Z,7.04
2023-04-26T18:02:43.418Z,6.80
2023-04-26T18:05:18.274Z,6.67
2023-04-26T18:07:50.681Z,6.73
2023-04-26T18:10:19.129Z,6.72
2023-04-26T18:12:55.957Z,6.61
2023-04-26T18:15:28.042Z,6.49
2023-04-26T18:17:56.162Z,6.42
2023-04-26T18:20:24.221Z,6.36
2023-04-26T18:22:58.161Z,6.25
2023-04-26T18:25:27.387Z,6.16
2023-04-26T18:27:57.910Z,6.00
2023-04-26T18:30:26.268Z,6.00
2023-04-26T18:32:55.584Z,5.92
2023-04-26T18:35:23.777Z,5.81
2023-04-26T18:37:53.252Z,5.78
2023-04-26T18:40:21.221Z,5.39
2023-04-26T18:42:49.380Z,5.55
2023-04-26T18:45:17.758Z,5.32
2023-04-26T18:47:45.895Z,4.99
2023-04-26T18:50:13.873Z,4.95
2023-04-26T18:52:50.240Z,4.75
2023-04-26T18:55:21.593Z,4.65
2023-04-26T18:57:50.200Z,4.40
2023-04-26T19:00:22.901Z,4.03
2023-04-26T19:02:51.218Z,4.00
2023-04-26T19:05:19.736Z,3.98
2023-04-26T19:07:47.828Z,4.06
2023-04-26T19:10:23.141Z,3.97
2023-04-26T19:12:52.084Z,4.12
2023-04-26T19:15:20.933Z,3.88
2023-04-26T19:17:50.619Z,3.45
2023-04-26T19:20:26.863Z,3.14
2023-04-26T19:22:55.058Z,2.99
2023-04-26T19:25:29.522Z,3.04
2023-04-26T19:27:59.685Z,2.85
2023-04-26T19:30:27.869Z,2.70
2023-04-26T19:33:00.020Z,2.61
2023-04-26T19:35:28.251Z,2.51
2023-04-26T19:37:57.234Z,2.49
2023-04-26T19:40:26.804Z,2.30
2023-04-26T19:42:54.746Z,2.23
2023-04-26T19:45:22.877Z,2.12
2023-04-26T19:47:53.726Z,1.97
2023-04-26T19:50:22.769Z,1.93
2023-04-26T19:52:50.797Z,2.02
2023-04-26T19:55:29.756Z,2.14
2023-04-26T19:57:59.386Z,1.85
2023-04-26T20:00:30.217Z,1.92
2023-04-26T20:02:59.136Z,2.01
2023-04-26T20:05:27.483Z,1.91
2023-04-26T20:08:00.460Z,1.84
2023-04-26T20:10:31.622Z,1.71
2023-04-26T20:13:01.498Z,1.69
2023-04-26T20:15:32.273Z,1.55
2023-04-26T20:18:06.987Z,1.43
2023-04-26T20:20:37.146Z,1.56
2023-04-26T20:23:05.092Z,1.57
2023-04-26T20:25:36.028Z,1.26
2023-04-26T20:28:13.033Z,1.80
2023-04-26T20:30:41.017Z,1.52
2023-04-26T20:33:10.101Z,1.46
2023-04-26T20:35:38.130Z,1.89
2023-04-26T20:40:48.783Z,1.42
2023-04-26T20:43:18.466Z,1.11
2023-04-26T20:45:49.441Z,0.97
2023-04-26T20:48:17.586Z,0.74
2023-04-26T20:50:45.726Z,0.49
2023-04-26T20:53:13.904Z,0.87
2023-04-26T20:55:42.300Z,0.94
2023-04-26T20:58:10.250Z,0.90
2023-04-26T21:00:51.495Z,1.19
2023-04-26T21:03:33.676Z,1.21
2023-04-26T21:06:01.812Z,1.60
2023-04-26T21:08:29.724Z,1.51
2023-04-26T21:10:58.811Z,1.25
2023-04-26T21:13:27.098Z,1.22
2023-04-26T21:15:59.696Z,1.19
2023-04-26T21:18:37.498Z,1.46
2023-04-26T21:21:05.676Z,1.12
2023-04-26T21:23:47.639Z,0.99
2023-04-26T21:26:18.414Z,0.73
2023-04-26T21:28:49.298Z,0.97
2023-04-26T21:31:22.206Z,0.55
2023-04-26T21:33:50.875Z,0.25
2023-04-26T21:36:19.074Z,0.47
2023-04-26T21:38:48.568Z,0.60
2023-04-26T21:41:16.534Z,0.23
2023-04-26T21:43:45.809Z,0.40
2023-04-26T21:46:13.890Z,0.54
2023-04-26T21:48:45.677Z,0.60
2023-04-26T21:51:14.851Z,0.20
2023-04-26T21:53:42.910Z,-0.07
2023-04-26T21:56:14.660Z,-0.07
2023-04-26T21:58:43.228Z,0.57
2023-04-26T22:01:13.037Z,1.09
2023-04-26T22:03:41.472Z,1.19
2023-04-26T22:06:11.547Z,0.97
2023-04-26T22:08:39.692Z,0.58
2023-04-26T22:11:07.863Z,0.69
2023-04-26T22:13:35.916Z,0.80
2023-04-26T22:16:04.383Z,0.75
2023-04-26T22:18:32.666Z,0.70
2023-04-26T22:21:01.651Z,0.74
2023-04-26T22:23:31.712Z,0.78
2023-04-26T22:26:00.742Z,0.54
2023-04-26T22:28:28.713Z,0.50
2023-04-26T22:30:56.796Z,0.16
2023-04-26T22:33:24.766Z,-0.03
2023-04-26T22:35:57.504Z,0.38
2023-04-26T22:38:25.547Z,0.25
2023-04-26T22:40:55.341Z,0.52
2023-04-26T22:43:23.700Z,0.38
2023-04-26T22:45:51.780Z,0.54
2023-04-26T22:48:19.746Z,0.43
2023-04-26T22:50:49.619Z,0.17
2023-04-26T22:53:17.792Z,0.11
2023-04-26T22:55:45.943Z,0.40
2023-04-26T22:58:17.267Z,0.38
2023-04-26T23:00:45.273Z,0.16
2023-04-26T23:03:13.557Z,0.18
2023-04-26T23:05:41.614Z,-0.03
2023-04-26T23:08:10.994Z,-0.11
2023-04-26T23:10:40.064Z,-0.12
2023-04-26T23:13:10.408Z,-0.25
2023-04-26T23:15:39.774Z,-0.05
2023-04-26T23:18:07.819Z,-0.09
2023-04-26T23:20:36.933Z,0.14
2023-04-26T23:23:04.991Z,0.23
2023-04-26T23:25:32.938Z,0.14
2023-04-26T23:28:01.092Z,0.12
2023-04-26T23:30:29.017Z,-0.06
2023-04-26T23:32:58.248Z,-0.27
2023-04-26T23:35:26.189Z,-0.15
2023-04-26T23:37:55.216Z,-0.21
2023-04-26T23:40:23.321Z,-0.26
2023-04-26T23:42:51.266Z,-0.20
2023-04-26T23:45:19.493Z,-0.04
2023-04-26T23:47:47.429Z,0.05
2023-04-26T23:50:16.860Z,-0.24
2023-04-26T23:52:45.006Z,-0.35
2023-04-26T23:55:13.259Z,-0.36
2023-04-26T23:57:41.344Z,-0.47
